Coopersville, Michigan
Current Conditions -  °F | °C
As of 12:55 PM on Wednesday 26 Nov 2014 (Local Time) from KMKG Reporting Station
Light Snow Light Snow  
Wind Chill: 24°   Ceiling: 3600
Heat Index: 30°   Visibility: 6mi
Dew Point: 23°   Wind: 6mph
Humidity: 75%   Direction: 130°SE
Pressure: 30.14"   Gusts: NA
Location:  43.06°N, 85.93°W
Report Text: KMKG 261755Z 13005KT 6SM -SN FEW017 OVC036 M01/M05 A3014 RMK AO2 SNB16 SLP213 4/002 933001 P0000 60000 T10111050 11011 21017 58008
Loading
Personal Weather Stations






























Interactive Weather Map New forecast layout! Learn more

10-Day Weather Forecast

Advertisements
Track Severe Weather on mobile